Time;durP1;ratioP1;P1;durP2;ratioP2;P2;SDS_P1;SDS_P2;PMS_P1;PMS_P2;Temp;Humidity;BMP_temperature;BMP_pressure;BME280_temperature;BME280_humidity;BME280_pressure;Samples;Min_cycle;Max_cycle;Signal;HPM_P1;HPM_P2
2023/09/01 00:00:15;;;;;;;1.85;1.00;;;18.80;99.90;;;;;;4941834;28;20503;-19
2023/09/01 00:02:40;;;;;;;1.33;1.10;;;18.80;99.90;;;;;;4921055;28;20391;-19
2023/09/01 00:05:07;;;;;;;2.07;1.10;;;18.80;99.90;;;;;;4955445;28;20171;-18
2023/09/01 00:07:32;;;;;;;1.98;1.00;;;18.80;99.90;;;;;;4953106;28;20054;-19
2023/09/01 00:09:58;;;;;;;2.03;0.98;;;18.80;99.90;;;;;;4960325;28;20073;-18
2023/09/01 00:12:25;;;;;;;1.23;1.00;;;18.80;99.90;;;;;;4927494;28;20077;-19
2023/09/01 00:14:50;;;;;;;1.98;1.20;;;18.70;99.90;;;;;;4974728;28;20026;-18
2023/09/01 00:17:16;;;;;;;1.85;1.15;;;18.70;99.90;;;;;;4963521;28;20081;-18
2023/09/01 00:19:42;;;;;;;1.33;0.90;;;18.70;99.90;;;;;;4941559;28;20100;-19
2023/09/01 00:22:08;;;;;;;2.10;1.15;;;18.70;99.90;;;;;;4923808;28;20389;-19
2023/09/01 00:24:34;;;;;;;2.00;1.00;;;19.60;99.90;;;;;;4971424;28;20018;-18
2023/09/01 00:27:01;;;;;;;1.52;1.00;;;18.50;99.90;;;;;;4961448;28;20049;-18
2023/09/01 00:29:27;;;;;;;2.10;1.10;;;18.70;99.90;;;;;;4966780;28;20037;-18
2023/09/01 00:31:53;;;;;;;1.33;1.00;;;18.60;99.90;;;;;;4943408;28;20034;-18
2023/09/01 00:34:18;;;;;;;1.00;0.90;;;18.70;99.90;;;;;;4952070;28;20654;-19
2023/09/01 00:36:45;;;;;;;1.52;1.00;;;18.70;99.90;;;;;;4948669;28;20038;-17
2023/09/01 00:39:11;;;;;;;1.52;1.00;;;18.60;99.90;;;;;;4953094;28;20226;-16
2023/09/01 00:41:36;;;;;;;1.90;1.10;;;18.60;99.90;;;;;;4941490;28;20120;-16
2023/09/01 00:44:06;;;;;;;1.90;1.03;;;18.60;99.90;;;;;;4963938;28;20544;-18
2023/09/01 00:46:32;;;;;;;1.83;1.10;;;18.60;99.90;;;;;;4971907;28;20192;-18
2023/09/01 00:48:58;;;;;;;1.40;1.00;;;18.60;99.90;;;;;;4949398;28;20057;-18
2023/09/01 00:51:25;;;;;;;2.10;1.10;;;18.60;99.90;;;;;;4954325;28;20605;-21
2023/09/01 00:53:52;;;;;;;3.10;1.60;;;18.60;99.90;;;;;;4953496;28;20038;-18
2023/09/01 00:56:19;;;;;;;1.88;1.00;;;18.60;99.90;;;;;;4973531;28;20224;-18
2023/09/01 00:58:45;;;;;;;1.33;1.10;;;18.60;99.90;;;;;;4964810;28;20030;-19
2023/09/01 01:01:11;;;;;;;1.37;1.07;;;18.60;99.90;;;;;;4970150;28;20234;-18
2023/09/01 01:03:38;;;;;;;2.73;1.07;;;18.60;99.90;;;;;;4976966;23;20727;-18
2023/09/01 01:06:45;;;;;;;1.80;1.10;;;18.60;99.90;;;;;;4957116;28;20033;-18
2023/09/01 01:09:29;;;;;;;2.25;0.90;;;18.60;99.90;;;;;;4940668;28;20119;-17
2023/09/01 01:12:06;;;;;;;2.10;1.00;;;18.60;99.90;;;;;;4997111;28;20038;-18
2023/09/01 01:14:54;;;;;;;1.13;0.90;;;18.60;99.90;;;;;;4982130;28;20628;-18
2023/09/01 01:17:21;;;;;;;1.50;0.90;;;18.60;99.90;;;;;;4973752;28;20131;-17
2023/09/01 01:19:59;;;;;;;1.67;0.95;;;18.60;99.90;;;;;;4970475;28;20049;-18
2023/09/01 01:23:00;;;;;;;1.88;1.00;;;18.50;99.90;;;;;;4978673;28;20061;-18
2023/09/01 01:25:25;;;;;;;1.80;1.00;;;18.60;99.90;;;;;;4975500;28;20104;-18
2023/09/01 01:27:57;;;;;;;1.10;0.90;;;18.60;99.90;;;;;;4989137;28;20387;-17
2023/09/01 01:30:22;;;;;;;1.75;1.10;;;18.60;99.90;;;;;;4948859;28;20038;-19
2023/09/01 01:32:49;;;;;;;1.73;1.00;;;18.50;99.90;;;;;;4958375;28;20037;-17
2023/09/01 01:35:29;;;;;;;1.33;0.90;;;18.50;99.90;;;;;;4983428;28;20038;-18
2023/09/01 01:38:12;;;;;;;2.17;1.13;;;18.50;99.90;;;;;;4961917;28;20033;-18
2023/09/01 01:40:38;;;;;;;2.03;1.00;;;18.50;99.90;;;;;;4965919;28;20037;-20
2023/09/01 01:43:07;;;;;;;1.70;1.08;;;18.50;99.90;;;;;;4988501;28;20061;-18
2023/09/01 01:45:35;;;;;;;1.63;0.95;;;18.50;99.90;;;;;;4973846;28;20899;-18
2023/09/01 01:48:01;;;;;;;1.93;1.10;;;18.50;99.90;;;;;;4966209;28;20258;-19
2023/09/01 01:50:26;;;;;;;1.70;1.10;;;18.50;99.90;;;;;;4985156;28;20442;-18
2023/09/01 01:52:52;;;;;;;1.23;1.00;;;18.50;99.90;;;;;;4975945;28;20228;-17
2023/09/01 01:55:18;;;;;;;1.33;1.00;;;18.50;99.90;;;;;;4970322;28;20542;-17
2023/09/01 01:57:44;;;;;;;2.05;1.15;;;18.50;99.90;;;;;;4962540;28;20039;-21
2023/09/01 02:00:14;;;;;;;1.77;1.03;;;18.40;99.90;;;;;;4978797;28;20433;-18
2023/09/01 02:02:43;;;;;;;1.05;0.90;;;18.40;99.90;;;;;;4993736;28;20400;-18
2023/09/01 02:05:09;;;;;;;1.15;1.05;;;18.50;99.90;;;;;;4951606;28;20574;-18
2023/09/01 02:07:35;;;;;;;1.30;1.10;;;18.40;99.90;;;;;;4993966;28;20483;-20
2023/09/01 02:10:08;;;;;;;1.35;0.98;;;18.50;99.90;;;;;;4959631;28;20110;-21
2023/09/01 02:12:34;;;;;;;1.37;1.07;;;18.50;99.90;;;;;;4985960;28;20058;-19
2023/09/01 02:15:00;;;;;;;1.77;1.10;;;18.40;99.90;;;;;;4995398;28;20086;-19
2023/09/01 02:17:26;;;;;;;1.98;1.00;;;18.40;99.90;;;;;;4953299;28;20046;-18
2023/09/01 02:19:52;;;;;;;1.73;1.10;;;18.50;99.90;;;;;;4975358;28;20063;-18
2023/09/01 02:22:17;;;;;;;1.33;1.08;;;18.50;99.90;;;;;;4986920;28;20431;-18
2023/09/01 02:24:43;;;;;;;2.63;1.37;;;18.40;99.90;;;;;;4953185;28;20497;-20
2023/09/01 02:27:09;;;;;;;2.08;1.05;;;17.30;99.90;;;;;;4981169;28;20823;-18
2023/09/01 02:29:35;;;;;;;1.37;1.17;;;18.50;99.90;;;;;;4979836;28;20511;-19
2023/09/01 02:32:02;;;;;;;1.50;1.20;;;18.50;99.90;;;;;;4961554;28;20294;-18
2023/09/01 02:34:27;;;;;;;2.15;1.30;;;18.50;99.90;;;;;;4999422;28;20033;-18
2023/09/01 02:36:53;;;;;;;2.77;1.23;;;18.50;99.90;;;;;;4968921;28;20035;-18
2023/09/01 02:39:19;;;;;;;1.80;1.20;;;18.50;99.90;;;;;;4989462;28;20026;-18
2023/09/01 02:41:45;;;;;;;1.60;1.10;;;18.50;99.90;;;;;;4959061;28;20042;-18
2023/09/01 02:44:10;;;;;;;1.90;1.20;;;18.50;99.90;;;;;;4973568;28;20037;-18
2023/09/01 02:46:36;;;;;;;1.63;1.10;;;18.50;99.90;;;;;;4998550;28;20053;-18
2023/09/01 02:49:03;;;;;;;1.70;1.20;;;18.50;99.90;;;;;;4983781;28;20329;-19
2023/09/01 02:51:29;;;;;;;2.10;1.15;;;18.50;99.90;;;;;;4999102;28;20370;-17
2023/09/01 02:53:55;;;;;;;1.93;1.30;;;18.50;99.90;;;;;;4977363;28;20038;-18
2023/09/01 02:56:21;;;;;;;1.85;1.20;;;18.50;99.90;;;;;;4965647;28;20040;-18
2023/09/01 02:58:46;;;;;;;1.98;1.20;;;18.50;99.90;;;;;;4964937;28;20085;-18
2023/09/01 03:01:12;;;;;;;2.43;1.30;;;18.50;99.90;;;;;;4999636;28;20037;-17
2023/09/01 03:03:43;;;;;;;1.65;1.30;;;18.50;99.90;;;;;;4984169;28;20406;-19
2023/09/01 03:06:09;;;;;;;1.90;1.20;;;18.50;99.90;;;;;;4997930;28;20052;-18
2023/09/01 03:08:35;;;;;;;1.57;1.13;;;18.50;99.90;;;;;;4989554;28;20453;-19
2023/09/01 03:11:03;;;;;;;2.40;1.40;;;18.50;99.90;;;;;;4957595;28;20033;-17
2023/09/01 03:13:29;;;;;;;1.80;1.00;;;18.50;99.90;;;;;;4972480;28;20055;-18
2023/09/01 03:15:55;;;;;;;2.03;1.30;;;18.50;99.90;;;;;;4941928;28;20200;-18
2023/09/01 03:18:20;;;;;;;2.03;1.20;;;18.40;99.90;;;;;;4990005;28;20497;-17
2023/09/01 03:20:47;;;;;;;1.40;1.20;;;18.40;99.90;;;;;;4996647;28;20363;-19
2023/09/01 03:23:12;;;;;;;2.22;1.20;;;18.40;99.90;;;;;;4983511;28;20113;-18
2023/09/01 03:25:38;;;;;;;1.60;1.20;;;18.40;99.90;;;;;;4971216;28;20029;-18
2023/09/01 03:28:04;;;;;;;3.17;1.40;;;18.40;99.90;;;;;;4980480;28;20099;-18
2023/09/01 03:30:30;;;;;;;1.70;1.30;;;18.40;99.90;;;;;;4958887;28;20030;-18
2023/09/01 03:32:55;;;;;;;1.73;1.20;;;18.40;99.90;;;;;;4979653;28;20108;-18
2023/09/01 03:35:21;;;;;;;2.63;1.20;;;18.40;99.90;;;;;;4978782;28;20038;-17
2023/09/01 03:37:47;;;;;;;1.92;1.42;;;18.40;99.90;;;;;;4995915;28;20058;-18
2023/09/01 03:40:14;;;;;;;1.88;1.08;;;18.40;99.90;;;;;;4963978;28;20114;-18
2023/09/01 03:42:40;;;;;;;1.40;1.10;;;18.40;99.90;;;;;;4973278;28;20032;-19
2023/09/01 03:45:06;;;;;;;1.52;1.10;;;18.40;99.90;;;;;;4963657;28;20151;-18
2023/09/01 03:47:32;;;;;;;2.47;1.20;;;18.40;99.90;;;;;;4998210;28;20076;-19
2023/09/01 03:49:58;;;;;;;2.07;1.17;;;18.40;99.90;;;;;;4980598;28;20471;-17
2023/09/01 03:52:23;;;;;;;1.90;1.17;;;18.50;99.90;;;;;;4966014;28;20265;-18
2023/09/01 03:54:49;;;;;;;1.60;1.13;;;18.40;99.90;;;;;;4970074;28;20152;-17
2023/09/01 03:57:15;;;;;;;2.03;1.20;;;18.40;99.90;;;;;;4990502;28;20025;-17
2023/09/01 03:59:42;;;;;;;2.80;1.20;;;18.40;99.90;;;;;;4964877;28;20113;-18
2023/09/01 04:02:08;;;;;;;1.77;1.20;;;18.40;99.90;;;;;;4975195;28;20561;-18
2023/09/01 04:04:34;;;;;;;1.87;1.30;;;18.40;99.90;;;;;;4997582;28;20056;-18
2023/09/01 04:07:00;;;;;;;1.50;1.10;;;18.40;99.90;;;;;;4966541;28;20031;-17
2023/09/01 04:09:25;;;;;;;1.53;1.13;;;18.40;99.90;;;;;;4999336;28;20490;-18
2023/09/01 04:11:51;;;;;;;2.90;1.40;;;18.40;99.90;;;;;;4959928;28;20341;-17
2023/09/01 04:14:17;;;;;;;2.07;1.33;;;18.40;99.90;;;;;;4983612;28;20026;-17
2023/09/01 04:16:43;;;;;;;3.47;1.30;;;18.40;99.90;;;;;;4972700;28;20025;-17
2023/09/01 04:19:09;;;;;;;1.83;1.27;;;18.40;99.90;;;;;;4981976;28;20054;-17
2023/09/01 04:21:35;;;;;;;1.83;1.30;;;18.30;99.90;;;;;;4980253;28;20308;-20
2023/09/01 04:24:01;;;;;;;2.55;1.30;;;18.30;99.90;;;;;;4995810;28;20227;-17
2023/09/01 04:26:27;;;;;;;2.30;1.17;;;18.30;99.90;;;;;;4988735;28;20034;-16
2023/09/01 04:28:53;;;;;;;2.20;1.20;;;18.30;99.90;;;;;;4967339;28;20060;-17
2023/09/01 04:31:29;;;;;;;1.63;1.15;;;18.30;99.90;;;;;;4958265;28;20399;-16
2023/09/01 04:33:56;;;;;;;2.40;1.50;;;18.30;99.90;;;;;;4954219;28;20442;-16
2023/09/01 04:36:22;;;;;;;1.73;1.23;;;18.30;99.90;;;;;;4983695;28;20525;-15
2023/09/01 04:38:49;;;;;;;3.40;1.40;;;18.30;99.90;;;;;;4992809;28;20439;-17
2023/09/01 04:41:14;;;;;;;2.65;1.40;;;18.30;99.90;;;;;;4970728;28;20022;-18
2023/09/01 04:43:41;;;;;;;2.87;1.60;;;18.30;99.90;;;;;;4968102;28;20042;-17
2023/09/01 04:46:07;;;;;;;2.28;1.50;;;18.30;99.90;;;;;;4956519;28;20370;-17
2023/09/01 04:48:34;;;;;;;2.05;1.35;;;18.30;99.90;;;;;;4996703;28;20073;-17
2023/09/01 04:51:02;;;;;;;2.55;1.48;;;18.30;99.90;;;;;;4962379;28;20282;-18
2023/09/01 04:53:28;;;;;;;2.25;1.60;;;18.20;99.90;;;;;;4983206;28;20116;-17
2023/09/01 04:55:54;;;;;;;3.07;1.20;;;18.30;99.90;;;;;;4995065;28;20040;-17
2023/09/01 04:58:20;;;;;;;1.92;1.20;;;18.30;99.90;;;;;;4978855;28;20030;-17
2023/09/01 05:00:46;;;;;;;2.38;1.60;;;18.30;99.90;;;;;;4981129;28;20036;-16
2023/09/01 05:03:12;;;;;;;2.20;1.40;;;18.30;99.90;;;;;;4958204;28;20050;-16
2023/09/01 05:05:37;;;;;;;2.40;1.50;;;18.30;99.90;;;;;;4996622;28;20285;-17
2023/09/01 05:08:03;;;;;;;3.10;1.45;;;18.30;99.90;;;;;;4963429;28;20026;-16
2023/09/01 05:10:29;;;;;;;2.40;1.60;;;18.30;99.90;;;;;;4984139;28;20049;-16
2023/09/01 05:12:55;;;;;;;2.80;1.53;;;18.30;99.90;;;;;;4988043;28;20084;-16
2023/09/01 05:15:21;;;;;;;2.42;1.42;;;18.30;99.90;;;;;;4969171;28;20117;-16
2023/09/01 05:17:47;;;;;;;2.67;1.60;;;18.30;99.90;;;;;;4903976;28;20466;-17
2023/09/01 05:20:12;;;;;;;2.40;1.40;;;18.30;99.90;;;;;;4996465;28;20033;-16
2023/09/01 05:22:38;;;;;;;2.90;1.70;;;18.40;99.90;;;;;;4984025;28;20175;-19
2023/09/01 05:25:05;;;;;;;3.90;1.80;;;18.40;99.90;;;;;;4969444;28;20851;-16
2023/09/01 05:27:31;;;;;;;2.40;1.60;;;18.30;99.90;;;;;;4952213;28;20263;-16
2023/09/01 05:29:57;;;;;;;2.92;1.67;;;18.40;99.90;;;;;;4976378;28;20028;-17
2023/09/01 05:32:23;;;;;;;3.27;1.87;;;18.40;99.90;;;;;;4937198;28;20037;-16
2023/09/01 05:34:49;;;;;;;3.35;1.70;;;18.40;99.90;;;;;;4976186;28;20022;-16
2023/09/01 05:37:15;;;;;;;2.80;1.60;;;18.40;99.90;;;;;;4992662;28;20041;-16
2023/09/01 05:39:41;;;;;;;2.50;1.48;;;18.40;99.90;;;;;;4980950;28;20030;-17
2023/09/01 05:42:08;;;;;;;2.55;1.60;;;18.40;99.90;;;;;;4979639;28;20034;-16
2023/09/01 05:44:35;;;;;;;3.20;1.70;;;18.40;99.90;;;;;;4975806;28;20022;-16
2023/09/01 05:47:07;;;;;;;3.05;1.67;;;18.40;99.90;;;;;;4993789;28;20141;-14
2023/09/01 05:49:33;;;;;;;3.08;1.88;;;19.50;99.90;;;;;;4952491;28;20399;-14
2023/09/01 05:52:03;;;;;;;3.78;1.75;;;18.40;99.90;;;;;;4991282;28;20018;-14
2023/09/01 05:54:29;;;;;;;2.58;1.60;;;18.50;99.90;;;;;;4973176;28;20718;-14
2023/09/01 05:56:55;;;;;;;2.53;1.70;;;18.40;99.90;;;;;;4959236;28;20026;-14
2023/09/01 05:59:21;;;;;;;2.67;1.67;;;18.50;99.90;;;;;;4968529;28;20034;-14
2023/09/01 06:01:47;;;;;;;2.65;1.50;;;18.50;99.90;;;;;;4991430;28;20258;-14
2023/09/01 06:04:13;;;;;;;2.60;1.40;;;18.50;99.90;;;;;;4935566;28;20806;-14
2023/09/01 06:06:38;;;;;;;2.53;1.58;;;18.50;99.90;;;;;;4972249;28;20203;-14
2023/09/01 06:09:05;;;;;;;2.88;1.80;;;18.50;99.90;;;;;;4995702;28;20141;-13
2023/09/01 06:11:32;;;;;;;2.53;1.60;;;18.50;99.90;;;;;;4968127;28;21376;-13
2023/09/01 06:13:59;;;;;;;3.00;2.17;;;18.50;99.90;;;;;;4986857;28;20033;-14
2023/09/01 06:16:26;;;;;;;2.17;1.60;;;18.50;99.90;;;;;;4993737;28;20524;-14
2023/09/01 06:18:52;;;;;;;2.58;1.75;;;18.50;99.90;;;;;;4983093;28;20034;-14
2023/09/01 06:21:18;;;;;;;2.90;1.88;;;18.50;99.90;;;;;;4937685;28;20022;-14
2023/09/01 06:23:45;;;;;;;1.97;1.40;;;18.50;99.90;;;;;;4993824;28;20547;-14
2023/09/01 06:26:12;;;;;;;3.13;1.80;;;18.50;99.90;;;;;;4974670;28;20049;-14
2023/09/01 06:28:39;;;;;;;2.60;1.60;;;18.50;99.90;;;;;;4980362;28;20585;-14
2023/09/01 06:31:05;;;;;;;3.20;1.67;;;18.40;99.90;;;;;;4958946;28;20498;-14
2023/09/01 06:33:31;;;;;;;2.77;1.60;;;18.50;99.90;;;;;;4996493;28;20033;-14
2023/09/01 06:35:57;;;;;;;2.55;1.70;;;18.40;99.90;;;;;;4986236;28;20933;-14
2023/09/01 06:38:23;;;;;;;3.40;1.85;;;18.50;99.90;;;;;;4954897;28;20033;-15
2023/09/01 06:40:49;;;;;;;2.87;1.63;;;18.40;99.90;;;;;;4973788;28;20040;-15
2023/09/01 06:43:15;;;;;;;2.78;1.80;;;18.50;99.90;;;;;;4967512;28;20033;-15
2023/09/01 06:45:41;;;;;;;2.88;1.67;;;18.40;99.90;;;;;;4986579;28;20104;-15
2023/09/01 06:48:07;;;;;;;3.15;1.70;;;18.50;99.90;;;;;;4998934;28;20038;-15
2023/09/01 06:50:33;;;;;;;3.10;1.70;;;18.50;99.90;;;;;;4961913;28;20030;-15
2023/09/01 06:52:59;;;;;;;2.70;1.50;;;18.50;99.90;;;;;;4974461;28;20092;-14
2023/09/01 06:55:24;;;;;;;2.53;1.60;;;18.50;99.90;;;;;;4993222;28;20056;-15
2023/09/01 06:57:50;;;;;;;2.95;1.73;;;18.50;99.90;;;;;;4988594;28;20026;-14
2023/09/01 07:00:16;;;;;;;2.60;1.60;;;18.60;99.90;;;;;;4976632;28;20025;-14
2023/09/01 07:02:42;;;;;;;3.27;1.80;;;20.10;99.90;;;;;;4997166;28;20288;-15
2023/09/01 07:05:08;;;;;;;2.45;1.65;;;18.60;99.90;;;;;;4977320;28;20379;-15
2023/09/01 07:07:34;;;;;;;2.92;1.90;;;18.60;99.90;;;;;;4960814;28;20064;-14
2023/09/01 07:10:00;;;;;;;2.83;1.83;;;18.70;99.90;;;;;;4998139;28;20037;-15
2023/09/01 07:12:25;;;;;;;2.50;1.67;;;18.70;99.90;;;;;;4987121;28;20037;-15
2023/09/01 07:14:51;;;;;;;2.87;1.53;;;18.70;99.90;;;;;;4957284;28;20041;-15
2023/09/01 07:17:24;;;;;;;2.40;1.58;;;18.70;99.90;;;;;;4995629;28;20585;-15
2023/09/01 07:19:50;;;;;;;3.00;1.77;;;18.70;99.90;;;;;;4993081;28;20038;-15
2023/09/01 07:22:16;;;;;;;2.13;1.50;;;18.80;99.90;;;;;;4964955;28;20034;-14
2023/09/01 07:24:41;;;;;;;3.00;1.80;;;18.80;99.90;;;;;;4959720;28;21014;-14
2023/09/01 07:27:07;;;;;;;4.03;1.47;;;18.80;99.90;;;;;;4996208;28;20026;-17
2023/09/01 07:29:33;;;;;;;2.80;1.48;;;18.80;99.90;;;;;;4981167;28;20282;-15
2023/09/01 07:32:03;;;;;;;4.97;1.60;;;18.80;99.90;;;;;;4998335;28;20022;-16
2023/09/01 07:34:29;;;;;;;2.75;1.67;;;18.80;99.90;;;;;;4998748;28;20018;-16
2023/09/01 07:36:55;;;;;;;2.17;1.37;;;18.70;99.90;;;;;;4992453;28;20057;-15
2023/09/01 07:39:21;;;;;;;2.55;1.60;;;18.80;99.90;;;;;;4961163;28;20702;-15
2023/09/01 07:41:47;;;;;;;2.55;1.40;;;18.80;99.90;;;;;;4950065;28;20018;-16
2023/09/01 07:44:20;;;;;;;2.70;1.50;;;18.70;99.90;;;;;;4961771;28;20326;-16
2023/09/01 07:46:46;;;;;;;2.25;1.33;;;18.70;99.90;;;;;;4999522;28;20106;-16
2023/09/01 07:49:12;;;;;;;2.20;1.27;;;18.70;99.90;;;;;;4976549;28;20038;-16
2023/09/01 07:51:42;;;;;;;1.73;1.17;;;18.70;99.90;;;;;;4992715;28;20056;-15
2023/09/01 07:54:08;;;;;;;2.35;1.60;;;18.70;99.90;;;;;;4943593;28;20490;-17
2023/09/01 07:56:34;;;;;;;4.57;1.57;;;18.70;99.90;;;;;;4978433;28;20036;-16
2023/09/01 07:59:01;;;;;;;2.22;1.50;;;18.70;99.90;;;;;;4989941;28;20033;-17
2023/09/01 08:01:28;;;;;;;2.35;1.48;;;18.70;99.90;;;;;;4963223;28;20029;-15
2023/09/01 08:03:54;;;;;;;2.08;1.20;;;18.80;99.90;;;;;;4997150;28;20124;-15
2023/09/01 08:06:20;;;;;;;2.10;1.33;;;18.70;99.90;;;;;;4987144;28;20577;-15
2023/09/01 08:08:45;;;;;;;2.50;1.40;;;18.70;99.90;;;;;;4950417;28;20026;-15
2023/09/01 08:11:11;;;;;;;1.93;1.13;;;18.70;99.90;;;;;;4971039;28;20222;-15
2023/09/01 08:13:37;;;;;;;1.47;1.20;;;18.80;99.90;;;;;;4997618;28;20318;-15
2023/09/01 08:16:02;;;;;;;1.93;1.30;;;18.80;99.90;;;;;;4968468;28;20036;-16
2023/09/01 08:18:28;;;;;;;2.22;1.40;;;18.80;99.90;;;;;;4995603;28;20247;-17
2023/09/01 08:20:54;;;;;;;1.93;1.37;;;18.80;99.90;;;;;;4996982;28;20034;-18
2023/09/01 08:23:21;;;;;;;2.17;1.27;;;18.80;99.90;;;;;;4972250;28;20534;-18
2023/09/01 08:25:48;;;;;;;1.65;1.17;;;18.80;99.90;;;;;;4944304;28;20398;-17
2023/09/01 08:28:14;;;;;;;1.60;1.20;;;18.80;99.90;;;;;;4966613;28;20040;-17
2023/09/01 08:30:40;;;;;;;1.77;1.20;;;18.90;99.90;;;;;;4985963;28;20029;-17
2023/09/01 08:33:05;;;;;;;2.25;1.30;;;18.90;99.90;;;;;;4994402;28;20044;-16
2023/09/01 08:35:31;;;;;;;1.97;1.17;;;19.00;99.90;;;;;;4979451;28;20046;-17
2023/09/01 08:37:57;;;;;;;2.03;1.30;;;19.00;99.90;;;;;;4995586;28;20720;-18
2023/09/01 08:40:23;;;;;;;1.90;1.23;;;19.10;99.90;;;;;;4974845;28;20259;-17
2023/09/01 08:42:49;;;;;;;2.90;1.63;;;19.10;99.90;;;;;;4957895;28;20042;-16
2023/09/01 08:45:17;;;;;;;2.15;1.33;;;19.10;99.90;;;;;;4976227;28;20502;-16
2023/09/01 08:47:48;;;;;;;2.35;1.55;;;19.20;99.90;;;;;;4981881;28;20030;-16
2023/09/01 08:50:15;;;;;;;2.00;1.30;;;19.20;99.90;;;;;;4993102;28;20380;-16
2023/09/01 08:52:42;;;;;;;2.58;1.23;;;19.20;99.90;;;;;;4980461;28;20026;-16
2023/09/01 08:55:10;;;;;;;2.10;1.23;;;19.30;99.90;;;;;;4974668;28;20049;-16
2023/09/01 08:57:37;;;;;;;1.80;1.20;;;19.30;99.90;;;;;;4954323;28;20566;-16
2023/09/01 09:00:05;;;;;;;1.33;1.00;;;19.40;99.90;;;;;;4995838;28;20030;-16
2023/09/01 09:02:31;;;;;;;1.60;1.20;;;19.40;99.90;;;;;;4965086;28;20212;-16
2023/09/01 09:04:57;;;;;;;2.30;1.92;;;19.40;99.90;;;;;;4995829;28;20030;-17
2023/09/01 09:07:23;;;;;;;1.20;0.90;;;19.50;99.90;;;;;;4995162;28;20389;-17
2023/09/01 09:10:00;;;;;;;1.30;1.10;;;19.50;99.90;;;;;;4989193;28;20014;-16
2023/09/01 09:12:37;;;;;;;0.82;0.80;;;19.50;99.90;;;;;;4980461;28;20362;-16
2023/09/01 09:15:04;;;;;;;0.80;0.77;;;19.60;99.90;;;;;;4955344;28;20112;-17
2023/09/01 09:17:48;;;;;;;1.17;0.90;;;19.60;99.90;;;;;;4983839;28;20194;-16
2023/09/01 09:20:18;;;;;;;0.90;0.80;;;19.60;99.90;;;;;;4976044;28;20159;-16
2023/09/01 09:22:52;;;;;;;1.20;0.80;;;19.70;99.90;;;;;;4978370;28;20116;-16
2023/09/01 09:25:31;;;;;;;1.23;0.68;;;19.70;99.90;;;;;;4985364;28;20022;-16
2023/09/01 09:28:11;;;;;;;0.65;0.63;;;19.70;99.90;;;;;;4925191;28;20457;-17
2023/09/01 09:30:47;;;;;;;0.70;0.70;;;19.80;99.90;;;;;;4970146;28;20026;-17
2023/09/01 09:33:13;;;;;;;0.70;0.70;;;19.90;99.90;;;;;;4939534;28;20061;-16
2023/09/01 09:35:50;;;;;;;0.63;0.63;;;20.00;99.90;;;;;;4994225;28;20124;-17
2023/09/01 09:38:17;;;;;;;0.90;0.68;;;20.10;99.90;;;;;;4962862;28;20726;-16
2023/09/01 09:41:00;;;;;;;1.00;0.70;;;20.20;99.90;;;;;;4955066;28;20037;-17
2023/09/01 09:43:27;;;;;;;1.20;0.93;;;20.30;99.90;;;;;;4982068;28;20065;-17
2023/09/01 09:45:54;;;;;;;1.42;1.20;;;20.40;99.90;;;;;;4969736;28;20610;-17
2023/09/01 09:48:20;;;;;;;1.60;1.00;;;20.50;99.90;;;;;;4977374;28;20068;-16
2023/09/01 09:50:50;;;;;;;0.80;0.80;;;20.50;99.90;;;;;;4992379;28;20743;-17
2023/09/01 09:53:20;;;;;;;0.70;0.60;;;20.60;99.90;;;;;;4993200;28;20033;-18
2023/09/01 09:55:49;;;;;;;0.70;0.60;;;20.70;99.90;;;;;;4985190;28;20029;-19
2023/09/01 09:58:17;;;;;;;0.70;0.70;;;20.80;99.90;;;;;;4980759;28;20688;-17
2023/09/01 10:00:54;;;;;;;0.98;0.60;;;20.80;99.90;;;;;;4958244;28;20550;-18
2023/09/01 10:03:24;;;;;;;1.25;0.80;;;20.80;99.90;;;;;;4981835;28;20041;-18
2023/09/01 10:05:51;;;;;;;1.17;0.83;;;20.80;99.90;;;;;;4979330;28;20669;-17
2023/09/01 10:08:20;;;;;;;1.08;0.90;;;20.80;99.90;;;;;;4961548;28;20034;-17
2023/09/01 10:10:46;;;;;;;0.90;0.70;;;20.80;99.90;;;;;;4971222;28;20033;-17
2023/09/01 10:13:12;;;;;;;1.00;0.80;;;20.80;99.90;;;;;;4979490;28;20022;-17
2023/09/01 10:15:39;;;;;;;0.70;0.70;;;20.80;99.90;;;;;;4948641;28;20026;-18
2023/09/01 10:18:09;;;;;;;1.07;0.60;;;20.90;99.90;;;;;;4943287;28;20073;-18
2023/09/01 10:20:43;;;;;;;1.45;0.70;;;20.90;99.90;;;;;;4960818;28;20096;-21
2023/09/01 10:23:11;;;;;;;0.50;0.50;;;21.00;99.90;;;;;;4995899;28;20359;-16
2023/09/01 10:25:37;;;;;;;0.50;0.50;;;21.00;99.90;;;;;;4990640;28;20029;-19
2023/09/01 10:28:13;;;;;;;0.55;0.50;;;21.10;99.90;;;;;;4978106;28;20127;-17
2023/09/01 10:30:46;;;;;;;0.50;0.50;;;21.10;99.90;;;;;;4960099;28;20054;-19
2023/09/01 10:33:15;;;;;;;0.30;0.30;;;21.20;99.90;;;;;;4995345;28;20434;-18
2023/09/01 10:35:47;;;;;;;0.70;0.50;;;21.30;99.90;;;;;;4974515;28;20495;-20
2023/09/01 10:38:43;;;;;;;0.40;0.30;;;21.40;99.90;;;;;;4995646;28;20108;-18
2023/09/01 10:41:09;;;;;;;0.30;0.30;;;21.50;99.90;;;;;;4993827;28;20561;-19
2023/09/01 10:43:35;;;;;;;0.40;0.40;;;21.60;99.90;;;;;;4945198;28;20026;-18
2023/09/01 10:46:13;;;;;;;0.40;0.40;;;21.60;99.90;;;;;;4954343;28;20561;-19
2023/09/01 10:48:50;;;;;;;0.40;0.40;;;21.70;99.90;;;;;;4944128;28;22732;-19
2023/09/01 10:51:20;;;;;;;0.40;0.40;;;21.70;99.90;;;;;;4936968;28;20030;-22
2023/09/01 10:53:46;;;;;;;0.50;0.50;;;21.90;99.90;;;;;;4972906;28;20385;-20
2023/09/01 10:56:14;;;;;;;0.40;0.40;;;21.80;99.90;;;;;;4998642;28;20076;-21
2023/09/01 10:58:51;;;;;;;0.50;0.50;;;21.90;99.90;;;;;;4975393;28;20250;-21
2023/09/01 11:01:33;;;;;;;0.50;0.50;;;22.00;99.90;;;;;;4983899;28;20029;-22
2023/09/01 11:04:21;;;;;;;0.50;0.40;;;22.00;99.90;;;;;;4975464;28;20415;-21
2023/09/01 11:06:56;;;;;;;1.25;0.45;;;22.20;99.90;;;;;;4959324;28;20244;-23
2023/09/01 11:09:34;;;;;;;0.40;0.40;;;22.30;99.90;;;;;;4978701;28;20061;-22
2023/09/01 11:12:01;;;;;;;1.13;0.50;;;22.40;99.90;;;;;;4998956;28;20040;-21
2023/09/01 11:14:26;;;;;;;0.60;0.50;;;22.50;99.90;;;;;;4968844;28;20079;-24
2023/09/01 11:16:52;;;;;;;0.52;0.50;;;22.60;99.90;;;;;;4994691;28;20029;-22
2023/09/01 11:19:18;;;;;;;0.57;0.43;;;22.70;99.90;;;;;;4973194;28;20045;-24
2023/09/01 11:21:46;;;;;;;0.50;0.50;;;22.80;99.90;;;;;;4954244;28;20346;-22
2023/09/01 11:24:12;;;;;;;0.43;0.43;;;22.90;99.90;;;;;;4992647;28;20034;-24
2023/09/01 11:26:38;;;;;;;1.10;0.47;;;23.00;99.90;;;;;;4998336;28;20338;-22
2023/09/01 11:29:11;;;;;;;0.80;0.40;;;23.00;99.90;;;;;;5000770;28;20030;-22
2023/09/01 11:31:37;;;;;;;0.68;0.57;;;23.10;99.90;;;;;;4981330;28;20018;-22
2023/09/01 11:34:04;;;;;;;0.80;0.60;;;23.10;99.90;;;;;;4977187;28;20118;-23
2023/09/01 11:36:30;;;;;;;0.50;0.50;;;23.20;99.90;;;;;;4970845;28;23622;-24
2023/09/01 11:38:55;;;;;;;1.07;0.50;;;23.20;99.90;;;;;;4955646;28;20038;-29
2023/09/01 11:41:22;;;;;;;0.60;0.47;;;23.10;99.90;;;;;;4994369;28;20295;-24
2023/09/01 11:43:48;;;;;;;0.77;0.50;;;23.10;99.90;;;;;;4979120;28;20458;-24
2023/09/01 11:46:14;;;;;;;0.70;0.60;;;23.00;99.90;;;;;;4979938;28;20393;-24
2023/09/01 11:48:40;;;;;;;0.40;0.40;;;23.00;99.90;;;;;;4972996;28;20018;-27
2023/09/01 11:51:09;;;;;;;0.60;0.50;;;23.00;99.90;;;;;;4944846;28;20920;-28
2023/09/01 11:53:36;;;;;;;0.50;0.50;;;23.10;99.90;;;;;;4984461;28;20514;-27
2023/09/01 11:56:19;;;;;;;0.68;0.50;;;23.20;99.90;;;;;;4984424;28;20034;-30
2023/09/01 11:58:53;;;;;;;0.60;0.60;;;23.40;99.90;;;;;;4971016;28;20056;-28
2023/09/01 12:01:21;;;;;;;0.50;0.50;;;23.50;99.90;;;;;;4988474;28;20060;-27
2023/09/01 12:03:48;;;;;;;0.60;0.60;;;23.90;99.90;;;;;;4977263;28;20050;-27
2023/09/01 12:06:24;;;;;;;0.57;0.57;;;24.30;99.90;;;;;;4966690;28;20310;-24
2023/09/01 12:08:53;;;;;;;0.60;0.60;;;24.70;99.90;;;;;;4982804;28;20458;-26
2023/09/01 12:11:19;;;;;;;0.60;0.60;;;25.00;99.90;;;;;;4965945;28;20474;-24
2023/09/01 12:13:45;;;;;;;0.70;0.70;;;25.20;99.90;;;;;;4967595;28;20045;-28
2023/09/01 12:16:22;;;;;;;0.60;0.60;;;25.50;99.90;;;;;;4968958;28;20318;-26
2023/09/01 12:18:48;;;;;;;0.52;0.52;;;25.90;99.90;;;;;;4978731;28;20136;-26
2023/09/01 12:21:15;;;;;;;1.02;0.80;;;26.20;99.90;;;;;;4969340;28;21107;-24
2023/09/01 12:23:43;;;;;;;1.13;0.80;;;26.40;99.90;;;;;;4986704;28;20034;-28
2023/09/01 12:26:11;;;;;;;1.13;0.80;;;26.50;99.90;;;;;;4954142;28;20761;-25
2023/09/01 12:28:38;;;;;;;1.35;0.70;;;26.70;99.90;;;;;;4976736;28;20495;-25
2023/09/01 12:31:06;;;;;;;0.60;0.60;;;26.80;99.90;;;;;;4960928;28;20541;-25
2023/09/01 12:33:32;;;;;;;0.82;0.60;;;27.10;99.90;;;;;;4967549;28;20038;-25
2023/09/01 12:35:58;;;;;;;0.70;0.70;;;27.40;99.90;;;;;;4952065;28;20607;-26
2023/09/01 12:38:24;;;;;;;0.80;0.80;;;27.70;99.90;;;;;;4986752;28;20069;-27
2023/09/01 12:40:50;;;;;;;0.60;0.60;;;27.80;99.90;;;;;;4976933;28;20120;-26
2023/09/01 12:43:16;;;;;;;0.65;0.65;;;27.90;99.90;;;;;;4985156;28;20057;-25
2023/09/01 12:45:42;;;;;;;0.80;0.80;;;28.00;99.90;;;;;;4978580;28;20152;-27
2023/09/01 12:48:08;;;;;;;1.10;1.00;;;28.00;99.90;;;;;;4978122;28;20412;-25
2023/09/01 12:50:34;;;;;;;0.80;0.80;;;28.10;99.90;;;;;;4971667;28;20104;-28